Terminal Aerodrome Forecast
Issued by NWS Cleveland, OH

Home | Current Version | Previous Version | Graphics & Text | Print | Product List | Glossary On
Versions: 1 2 3 4 5 6 7 8 9 10 11 12 13 14 15
000
FTUS41 KCLE 231100
TAFERI
TAF
KERI 231130Z 2312/2412 28012G18KT P6SM SCT018 OVC040
      TEMPO 2312/2316 4SM -SHSN BKN018
     FM231600 28015G25KT P6SM VCSH BKN035 OVC050
     FM240000 27014KT P6SM VCSH OVC040
     FM240900 30009KT P6SM BKN040=

USA.gov is the U.S. government's official web portal to all federal, state and local government web resources and services.